Elverson, Pennsylvania
Current Conditions -  °F | °C
As of 8:55 AM on Wednesday 26 Nov 2014 (Local Time) from KMQS Reporting Station
Light Snow Light Snow  
Wind Chill: 29°   Ceiling: 600
Heat Index: 36°   Visibility: 3mi
Dew Point: 34°   Wind: 8mph
Humidity: 93%   Direction: 20°NNE
Pressure: 30.07"   Gusts: NA
Location:  40.16°N, 75.83°W
Report Text: KMQS 261355Z AUTO 02007KT 3SM -SN OVC006 02/01 A3007 RMK AO2 P0009
Loading
Personal Weather Stations






























Interactive Weather Map New forecast layout! Learn more

10-Day Weather Forecast

Advertisements
Track Severe Weather on mobile